.
WxDataArchive / Data Records for 2014-09-23
2014-09-22 September 2014 2014-09-24

Data Records for Tuesday, 23 September 2014

Time	Temp	Chill	HIndex	Humid	Dewpt	 Wind 	HiWind	WindDir	Rain 	Barom
-----	----	-----	------	-----	-----	------	------	-------	-----	-----
00:00	49.2	49.2	49.2	86	45.2	0	0	---	0.00	30.268 
00:05	49.1	49.1	49.1	86	45.1	0	0	---	0.00	30.268 
00:10	48.9	48.9	48.9	87	45.2	0	0	---	0.00	30.268 
00:15	48.8	48.8	48.8	87	45.1	0	0	---	0.00	30.267 
00:20	48.6	48.6	48.6	88	45.2	0	0	---	0.00	30.267 
00:25	48.5	48.5	48.5	88	45.1	0	0	---	0.00	30.267 
00:30	48.3	48.3	48.3	88	44.9	0	0	---	0.00	30.264 
00:35	48.0	48.0	48.0	88	44.6	0	0	---	0.00	30.264 
00:40	47.9	47.9	47.9	88	44.5	0	0	---	0.00	30.264 
00:45	47.7	47.7	47.7	88	44.3	0	0	---	0.00	30.262 
00:50	47.6	47.6	47.6	88	44.2	0	0	---	0.00	30.262 
00:55	47.4	47.4	47.4	89	44.3	0	0	---	0.00	30.262 
01:00	47.4	47.4	47.4	89	44.3	0	0	---	0.00	30.266 
01:05	47.4	47.4	47.4	89	44.3	0	0	---	0.00	30.266 
01:10	47.3	47.3	47.3	89	44.2	0	0	---	0.00	30.266 
01:15	47.1	47.1	47.1	89	44.0	0	0	---	0.00	30.267 
01:20	47.0	47.0	47.0	90	44.2	0	0	---	0.00	30.267 
01:25	46.8	46.8	46.8	90	44.0	0	0	---	0.00	30.267 
01:30	46.8	46.8	46.8	90	44.0	0	0	---	0.00	30.269 
01:35	46.7	46.7	46.7	90	43.9	0	0	---	0.00	30.269 
01:40	46.5	46.5	46.5	90	43.7	0	0	---	0.00	30.269 
01:45	46.4	46.4	46.4	90	43.6	0	0	---	0.00	30.269 
01:50	46.2	46.2	46.2	91	43.7	0	0	---	0.00	30.269 
01:55	46.2	46.2	46.2	91	43.7	0	0	---	0.00	30.269 
02:00	46.1	46.1	46.1	91	43.6	0	0	---	0.00	30.270 
02:05	46.0	46.0	46.0	91	43.5	0	0	---	0.00	30.270 
02:10	46.0	46.0	46.0	91	43.5	0	0	---	0.00	30.270 
02:15	45.8	45.8	45.8	91	43.3	0	0	---	0.00	30.272 
02:20	45.8	45.8	45.8	92	43.6	0	0	---	0.00	30.272 
02:25	45.7	45.7	45.7	92	43.5	0	0	---	0.00	30.272 
02:30	45.7	45.7	45.7	92	43.5	0	1	292	0.00	30.277 
02:35	45.7	45.7	45.7	92	43.5	0	0	---	0.00	30.277 
02:40	45.8	45.8	45.8	92	43.6	0	0	---	0.00	30.277 
02:45	45.8	45.8	45.8	92	43.6	0	0	---	0.00	30.277 
02:50	45.8	45.8	45.8	92	43.6	0	0	---	0.00	30.277 
02:55	45.7	45.7	45.7	92	43.5	0	0	---	0.00	30.277 
03:00	45.5	45.5	45.5	92	43.3	0	0	---	0.00	30.275 
03:05	45.4	45.4	45.4	92	43.2	0	0	---	0.00	30.275 
03:10	45.4	45.4	45.4	92	43.2	0	0	---	0.00	30.275 
03:15	45.2	45.2	45.2	92	43.0	0	0	---	0.00	30.269 
03:20	45.1	45.1	45.1	92	42.9	0	0	---	0.00	30.269 
03:25	44.9	44.9	44.9	92	42.7	0	0	---	0.00	30.269 
03:30	44.8	44.8	44.8	92	42.6	0	0	---	0.00	30.269 
03:35	44.8	44.8	44.8	92	42.6	0	0	---	0.00	30.269 
03:40	44.6	44.6	44.6	92	42.4	0	0	---	0.00	30.269 
03:45	44.5	44.5	44.5	93	42.6	0	0	---	0.00	30.269 
03:50	44.3	44.3	44.3	93	42.4	0	0	---	0.00	30.269 
03:55	44.3	44.3	44.3	93	42.4	0	0	---	0.00	30.269 
04:00	44.2	44.2	44.2	93	42.3	0	0	---	0.00	30.269 
04:05	44.1	44.1	44.1	93	42.2	0	0	---	0.00	30.269 
04:10	44.1	44.1	44.1	93	42.2	0	0	---	0.00	30.269 
04:15	43.9	43.9	43.9	93	42.0	0	0	---	0.00	30.271 
04:20	43.9	43.9	43.9	93	42.0	0	0	---	0.00	30.271 
04:25	43.8	43.8	43.8	93	41.9	0	0	---	0.00	30.271 
04:30	43.8	43.8	43.8	93	41.9	0	0	---	0.00	30.274 
04:35	43.6	43.6	43.6	93	41.7	0	0	---	0.00	30.274 
04:40	43.6	43.6	43.6	93	41.7	0	0	---	0.00	30.274 
04:45	43.6	43.6	43.6	93	41.7	0	0	---	0.00	30.271 
04:50	43.5	43.5	43.5	93	41.6	0	0	---	0.00	30.271 
04:55	43.3	43.3	43.3	93	41.4	0	0	---	0.00	30.271 
05:00	43.3	43.3	43.3	93	41.4	0	0	---	0.00	30.280 
05:05	43.3	43.3	43.3	93	41.4	0	0	---	0.00	30.280 
05:10	43.2	43.2	43.2	93	41.3	0	0	---	0.00	30.280 
05:15	43.2	43.2	43.2	93	41.3	0	0	---	0.00	30.280 
05:20	43.1	43.1	43.1	93	41.2	0	0	---	0.00	30.280 
05:25	43.1	43.1	43.1	93	41.2	0	0	---	0.00	30.280 
05:30	42.9	42.9	42.9	94	41.3	0	0	---	0.00	30.278 
05:35	42.9	42.9	42.9	94	41.3	0	0	---	0.00	30.278 
05:40	42.9	42.9	42.9	94	41.3	0	0	---	0.00	30.278 
05:45	42.8	42.8	42.8	94	41.2	0	0	---	0.00	30.283 
05:50	42.8	42.8	42.8	94	41.2	0	0	---	0.00	30.283 
05:55	42.6	42.6	42.6	94	41.0	0	0	---	0.00	30.283 
06:00	42.6	42.6	42.6	94	41.0	0	0	---	0.00	30.284 
06:05	42.6	42.6	42.6	94	41.0	0	0	---	0.00	30.284 
06:10	42.6	42.6	42.6	94	41.0	0	0	---	0.00	30.284 
06:15	42.5	42.5	42.5	94	40.9	0	0	---	0.00	30.288 
06:20	42.3	42.3	42.3	94	40.7	0	0	---	0.00	30.288 
06:25	42.3	42.3	42.3	94	40.7	0	0	---	0.00	30.288 
06:30	42.3	42.3	42.3	94	40.7	0	0	---	0.00	30.291 
06:35	42.3	42.3	42.3	94	40.7	0	0	---	0.00	30.291 
06:40	42.3	42.3	42.3	94	40.7	0	0	---	0.00	30.291 
06:45	42.3	42.3	42.3	94	40.7	0	0	---	0.00	30.301 
06:50	42.2	42.2	42.2	94	40.6	0	0	---	0.00	30.301 
06:55	42.2	42.2	42.2	94	40.6	0	0	---	0.00	30.301 
07:00	42.1	42.1	42.1	94	40.5	0	0	---	0.00	30.304 
07:05	42.1	42.1	42.1	94	40.5	0	0	---	0.00	30.304 
07:10	42.1	42.1	42.1	94	40.5	0	0	---	0.00	30.304 
07:15	42.1	42.1	42.1	94	40.5	0	0	---	0.00	30.311 
07:20	42.1	42.1	42.1	94	40.5	0	0	---	0.00	30.311 
07:25	41.9	41.9	41.9	94	40.3	0	0	---	0.00	30.311 
07:30	41.9	41.9	41.9	94	40.3	0	0	---	0.00	30.318 
07:35	41.9	41.9	41.9	94	40.3	0	0	---	0.00	30.318 
07:40	41.9	41.9	41.9	94	40.3	0	0	---	0.00	30.318 
07:45	41.9	41.9	41.9	94	40.3	0	0	---	0.00	30.321 
07:50	41.9	41.9	41.9	94	40.3	0	0	---	0.00	30.321 
07:55	41.9	41.9	41.9	94	40.3	0	0	---	0.00	30.321 
08:00	42.1	42.1	42.1	95	40.8	0	0	---	0.00	30.323 
08:05	42.3	42.3	42.3	95	41.0	0	0	---	0.00	30.323 
08:10	42.6	42.6	42.6	95	41.3	0	0	---	0.00	30.323 
08:15	42.9	42.9	42.9	95	41.6	0	0	---	0.00	30.324 
08:20	43.2	43.2	43.2	95	41.9	0	0	---	0.00	30.324 
08:25	43.6	43.6	43.6	95	42.3	0	0	---	0.00	30.324 
08:30	44.1	44.1	44.1	95	42.8	0	0	---	0.00	30.328 
08:35	44.6	44.6	44.6	96	43.5	0	0	---	0.00	30.328 
08:40	45.1	45.1	45.1	96	44.0	0	0	---	0.00	30.328 
08:45	45.8	45.8	45.8	96	44.7	0	0	---	0.00	30.323 
08:50	46.4	46.4	46.4	96	45.3	0	0	---	0.00	30.323 
08:55	46.8	46.8	46.8	96	45.7	0	0	---	0.00	30.323 
09:00	47.3	47.3	47.3	96	46.2	0	0	---	0.00	30.324 
09:05	47.7	47.7	47.7	96	46.6	0	0	---	0.00	30.324 
09:10	48.2	48.2	48.2	96	47.1	0	0	---	0.00	30.324 
09:15	48.6	48.6	48.6	96	47.5	0	0	---	0.00	30.331 
09:20	48.9	48.9	48.9	96	47.8	0	0	---	0.00	30.331 
09:25	49.2	49.2	49.2	96	48.1	0	0	---	0.00	30.331 
09:30	49.6	49.6	49.6	96	48.5	0	0	---	0.00	30.331 
09:35	50.1	50.1	50.1	96	49.0	0	1	292	0.00	30.331 
09:40	50.4	50.4	50.4	95	49.0	0	1	292	0.00	30.331 
09:45	51.0	51.0	51.0	95	49.6	0	0	---	0.00	30.333 
09:50	51.4	51.4	51.4	95	50.0	0	0	---	0.00	30.333 
09:55	51.9	51.9	51.9	94	50.2	0	1	292	0.00	30.333 
10:00	52.3	52.3	52.3	93	50.3	0	1	292	0.00	30.335 
10:05	53.2	53.2	53.2	90	50.3	0	1	292	0.00	30.335 
10:10	53.6	53.6	53.6	85	49.2	0	2	292	0.00	30.335 
10:15	54.4	54.4	54.4	84	49.7	0	1	292	0.00	30.335 
10:20	55.1	55.1	55.1	83	50.0	0	0	---	0.00	30.335 
10:25	55.9	55.9	55.9	80	49.8	0	0	---	0.00	30.335 
10:30	56.9	56.9	56.9	75	49.1	0	1	292	0.00	30.340 
10:35	58.1	58.1	58.1	72	49.1	0	1	292	0.00	30.340 
10:40	59.6	59.6	59.6	69	49.4	0	1	292	0.00	30.340 
10:45	60.5	60.5	60.5	65	48.7	0	1	292	0.00	30.339 
10:50	61.3	61.3	61.3	66	49.8	0	2	292	0.00	30.339 
10:55	61.8	61.8	61.8	63	49.1	0	1	292	0.00	30.339 
11:00	62.4	62.4	62.4	63	49.6	0	1	292	0.00	30.339 
11:05	63.2	63.2	63.2	59	48.6	0	1	292	0.00	30.339 
11:10	63.9	63.9	63.9	58	48.8	0	1	292	0.00	30.339 
11:15	64.3	64.3	64.3	58	49.2	0	1	292	0.00	30.340 
11:20	64.0	64.0	64.0	56	48.0	0	1	292	0.00	30.340 
11:25	63.4	63.4	63.4	59	48.8	0	1	292	0.00	30.340 
11:30	63.4	63.4	63.4	57	47.9	0	1	292	0.00	30.343 
11:35	63.2	63.2	63.2	58	48.2	0	1	292	0.00	30.343 
11:40	62.9	62.9	62.9	57	47.4	0	2	292	0.00	30.343 
11:45	63.2	63.2	63.2	59	48.6	0	2	292	0.00	30.341 
11:50	63.9	63.9	63.9	57	48.4	0	2	292	0.00	30.341 
11:55	64.0	64.0	64.0	54	47.0	1	4	292	0.00	30.341 
12:00	64.3	64.3	64.3	57	48.7	0	3	292	0.00	30.339 
12:05	64.7	64.7	64.7	55	48.2	0	2	292	0.00	30.339 
12:10	64.8	64.8	64.8	53	47.3	1	3	292	0.00	30.339 
12:15	65.2	65.2	65.2	52	47.1	0	2	292	0.00	30.340 
12:20	65.6	65.6	65.6	55	49.0	0	1	292	0.00	30.340 
12:25	65.6	65.6	65.6	52	47.5	1	3	292	0.00	30.340 
12:30	65.3	65.3	65.3	53	47.7	0	2	292	0.00	30.336 
12:35	65.5	65.5	65.5	54	48.4	0	2	292	0.00	30.336 
12:40	65.6	65.6	65.6	52	47.5	0	2	292	0.00	30.336 
12:45	66.0	66.0	66.0	54	48.9	0	1	292	0.00	30.327 
12:50	66.3	66.3	66.3	53	48.6	1	3	292	0.00	30.327 
12:55	66.4	66.4	66.4	54	49.2	1	4	292	0.00	30.327 
13:00	66.4	66.4	66.4	52	48.2	1	4	68	0.00	30.328 
13:05	66.3	66.3	66.3	54	49.1	1	3	0	0.00	30.328 
13:10	66.4	66.4	66.4	53	48.7	0	2	0	0.00	30.328 
13:15	66.4	66.4	66.4	51	47.7	0	2	0	0.00	30.327 
13:20	66.6	66.6	66.6	53	48.9	1	3	0	0.00	30.327 
13:25	66.8	66.8	66.8	50	47.6	1	3	0	0.00	30.327 
13:30	66.8	66.8	66.8	53	49.1	0	2	0	0.00	30.325 
13:35	66.8	66.8	66.8	50	47.6	1	3	315	0.00	30.325 
13:40	67.1	67.1	67.1	56	50.9	0	2	315	0.00	30.325 
13:45	67.3	67.3	67.3	52	49.1	0	2	315	0.00	30.323 
13:50	67.6	67.6	67.6	52	49.3	1	3	68	0.00	30.323 
13:55	67.8	67.8	67.8	53	50.0	0	4	68	0.00	30.323 
14:00	68.1	68.1	68.1	53	50.3	0	1	68	0.00	30.322 
14:05	68.1	68.1	68.1	50	48.7	1	4	90	0.00	30.322 
14:10	68.1	68.1	68.1	52	49.8	1	4	90	0.00	30.322 
14:15	68.1	68.1	68.1	54	50.8	0	2	112	0.00	30.322 
14:20	68.1	68.1	68.1	52	49.8	0	1	112	0.00	30.322 
14:25	68.3	68.3	68.3	50	48.9	1	4	112	0.00	30.322 
14:30	68.3	68.3	68.3	52	50.0	0	2	112	0.00	30.313 
14:35	68.4	68.4	68.4	49	48.5	0	3	112	0.00	30.313 
14:40	68.4	68.4	68.4	50	49.0	0	2	112	0.00	30.313 
14:45	68.4	68.4	68.4	52	50.1	0	3	112	0.00	30.310 
14:50	68.6	68.6	68.6	49	48.7	0	3	112	0.00	30.310 
14:55	68.9	68.9	68.9	51	50.0	0	3	112	0.00	30.310 
15:00	69.1	69.1	69.1	49	49.1	0	2	112	0.00	30.309 
15:05	69.1	69.1	69.1	49	49.1	1	2	112	0.00	30.309 
15:10	68.8	68.8	68.8	48	48.3	1	3	112	0.00	30.309 
15:15	68.9	68.9	68.9	49	48.9	1	3	112	0.00	30.309 
15:20	68.9	68.9	68.9	50	49.5	0	1	112	0.00	30.309 
15:25	69.1	69.1	69.1	49	49.1	0	2	112	0.00	30.309 
15:30	69.1	69.1	69.1	47	48.0	0	3	112	0.00	30.305 
15:35	69.1	69.1	69.1	51	50.2	0	1	112	0.00	30.305 
15:40	69.3	69.3	69.3	48	48.8	0	1	112	0.00	30.305 
15:45	69.4	69.4	69.4	46	47.7	0	3	112	0.00	30.298 
15:50	69.4	69.4	69.4	46	47.7	1	3	112	0.00	30.298 
15:55	69.3	69.3	69.3	47	48.2	0	1	112	0.00	30.298 
16:00	69.4	69.4	69.4	49	49.4	0	2	112	0.00	30.296 
16:05	69.6	69.6	69.6	46	47.9	0	1	112	0.00	30.296 
16:10	69.6	69.6	69.6	49	49.6	0	1	112	0.00	30.296 
16:15	69.6	69.6	69.6	50	50.1	0	0	---	0.00	30.291 
16:20	69.8	69.8	69.8	47	48.6	0	2	112	0.00	30.291 
16:25	69.6	69.6	69.6	47	48.5	0	2	112	0.00	30.291 
16:30	69.4	69.4	69.4	48	48.8	0	4	112	0.00	30.290 
16:35	69.3	69.3	69.3	49	49.3	0	1	112	0.00	30.290 
16:40	68.9	68.9	68.9	46	47.3	0	1	112	0.00	30.290 
16:45	68.9	68.9	68.9	49	48.9	1	2	112	0.00	30.283 
16:50	68.8	68.8	68.8	52	50.4	0	1	112	0.00	30.283 
16:55	68.9	68.9	68.9	51	50.0	0	0	---	0.00	30.283 
17:00	69.1	69.1	69.1	46	47.4	1	2	112	0.00	30.284 
17:05	69.1	69.1	69.1	47	48.0	0	1	112	0.00	30.284 
17:10	69.1	69.1	69.1	49	49.1	0	1	112	0.00	30.284 
17:15	69.1	69.1	69.1	48	48.6	0	1	112	0.00	30.278 
17:20	69.1	69.1	69.1	48	48.6	0	0	---	0.00	30.278 
17:25	69.1	69.1	69.1	49	49.1	0	0	---	0.00	30.278 
17:30	69.1	69.1	69.1	48	48.6	0	1	112	0.00	30.279 
17:35	69.1	69.1	69.1	48	48.6	0	2	112	0.00	30.279 
17:40	69.1	69.1	69.1	48	48.6	0	1	112	0.00	30.279 
17:45	69.3	69.3	69.3	48	48.8	0	2	112	0.00	30.278 
17:50	69.1	69.1	69.1	48	48.6	0	1	112	0.00	30.278 
17:55	69.1	69.1	69.1	50	49.7	0	1	112	0.00	30.278 
18:00	69.1	69.1	69.1	48	48.6	0	1	112	0.00	30.278 
18:05	69.1	69.1	69.1	48	48.6	0	1	112	0.00	30.278 
18:10	69.1	69.1	69.1	48	48.6	0	0	---	0.00	30.278 
18:15	68.9	68.9	68.9	47	47.8	0	1	112	0.00	30.281 
18:20	68.9	68.9	68.9	48	48.4	0	0	---	0.00	30.281 
18:25	68.9	68.9	68.9	50	49.5	0	1	112	0.00	30.281 
18:30	68.8	68.8	68.8	48	48.3	0	0	---	0.00	30.281 
18:35	68.6	68.6	68.6	49	48.7	0	0	---	0.00	30.281 
18:40	68.3	68.3	68.3	50	48.9	0	0	---	0.00	30.281 
18:45	68.1	68.1	68.1	51	49.3	0	0	---	0.00	30.280 
18:50	67.9	67.9	67.9	52	49.6	0	0	---	0.00	30.280 
18:55	67.6	67.6	67.6	53	49.9	0	0	---	0.00	30.280 
19:00	67.4	67.4	67.4	53	49.7	0	0	---	0.00	30.281 
19:05	67.1	67.1	67.1	54	49.9	0	0	---	0.00	30.281 
19:10	66.8	66.8	66.8	55	50.1	0	0	---	0.00	30.281 
19:15	66.4	66.4	66.4	56	50.2	0	0	---	0.00	30.282 
19:20	66.0	66.0	66.0	58	50.8	0	0	---	0.00	30.282 
19:25	65.6	65.6	65.6	60	51.3	0	0	---	0.00	30.282 
19:30	65.2	65.2	65.2	59	50.5	0	0	---	0.00	30.282 
19:35	64.7	64.7	64.7	61	50.9	0	0	---	0.00	30.282 
19:40	64.3	64.3	64.3	62	51.0	0	0	---	0.00	30.282 
19:45	63.9	63.9	63.9	64	51.5	0	0	---	0.00	30.284 
19:50	63.2	63.2	63.2	65	51.2	0	0	---	0.00	30.284 
19:55	62.7	62.7	62.7	67	51.6	0	0	---	0.00	30.284 
20:00	62.3	62.3	62.3	68	51.6	0	0	---	0.00	30.284 
20:05	61.8	61.8	61.8	71	52.3	0	0	---	0.00	30.284 
20:10	61.2	61.2	61.2	73	52.5	0	0	---	0.00	30.284 
20:15	60.7	60.7	60.7	73	52.0	0	0	---	0.00	30.288 
20:20	60.2	60.2	60.2	74	51.9	0	0	---	0.00	30.288 
20:25	59.9	59.9	59.9	75	52.0	0	0	---	0.00	30.288 
20:30	59.5	59.5	59.5	75	51.6	0	0	---	0.00	30.296 
20:35	59.2	59.2	59.2	77	52.0	0	0	---	0.00	30.296 
20:40	58.7	58.7	58.7	77	51.5	0	0	---	0.00	30.296 
20:45	58.4	58.4	58.4	78	51.6	0	0	---	0.00	30.298 
20:50	58.3	58.3	58.3	79	51.8	0	0	---	0.00	30.298 
20:55	58.0	58.0	58.0	80	51.9	0	0	---	0.00	30.298 
21:00	57.6	57.6	57.6	81	51.8	0	0	---	0.00	30.301 
21:05	57.3	57.3	57.3	81	51.5	0	0	---	0.00	30.301 
21:10	57.2	57.2	57.2	82	51.8	0	0	---	0.00	30.301 
21:15	56.9	56.9	56.9	83	51.8	0	0	---	0.00	30.297 
21:20	56.7	56.7	56.7	84	51.9	0	0	---	0.00	30.297 
21:25	56.5	56.5	56.5	84	51.7	0	0	---	0.00	30.297 
21:30	56.3	56.3	56.3	84	51.5	0	0	---	0.00	30.301 
21:35	56.2	56.2	56.2	85	51.7	0	0	---	0.00	30.301 
21:40	55.9	55.9	55.9	86	51.8	0	0	---	0.00	30.301 
21:45	55.7	55.7	55.7	86	51.6	0	0	---	0.00	30.299 
21:50	55.4	55.4	55.4	86	51.3	0	0	---	0.00	30.299 
21:55	55.3	55.3	55.3	86	51.2	0	0	---	0.00	30.299 
22:00	55.0	55.0	55.0	87	51.2	0	0	---	0.00	30.300 
22:05	54.8	54.8	54.8	87	51.0	0	0	---	0.00	30.300 
22:10	54.7	54.7	54.7	88	51.2	0	0	---	0.00	30.300 
22:15	54.5	54.5	54.5	88	51.0	0	0	---	0.00	30.293 
22:20	54.4	54.4	54.4	88	50.9	0	0	---	0.00	30.293 
22:25	54.2	54.2	54.2	88	50.7	0	0	---	0.00	30.293 
22:30	54.1	54.1	54.1	88	50.6	0	0	---	0.00	30.302 
22:35	53.8	53.8	53.8	88	50.3	0	0	---	0.00	30.302 
22:40	53.6	53.6	53.6	88	50.1	0	0	---	0.00	30.302 
22:45	53.5	53.5	53.5	88	50.0	0	0	---	0.00	30.301 
22:50	53.3	53.3	53.3	89	50.1	0	0	---	0.00	30.301 
22:55	53.1	53.1	53.1	89	49.9	0	0	---	0.00	30.301 
23:00	52.9	52.9	52.9	89	49.7	0	0	---	0.00	30.307 
23:05	52.8	52.8	52.8	89	49.6	0	0	---	0.00	30.307 
23:10	52.6	52.6	52.6	89	49.4	0	0	---	0.00	30.307 
23:15	52.5	52.5	52.5	89	49.4	0	0	---	0.00	30.307 
23:20	52.3	52.3	52.3	89	49.2	0	0	---	0.00	30.307 
23:25	52.2	52.2	52.2	90	49.4	0	0	---	0.00	30.307 
23:30	52.0	52.0	52.0	90	49.2	0	0	---	0.00	30.311 
23:35	51.9	51.9	51.9	90	49.1	0	0	---	0.00	30.311 
23:40	51.7	51.7	51.7	90	48.9	0	0	---	0.00	30.311 
23:45	51.6	51.6	51.6	90	48.8	0	0	---	0.00	30.313 
23:50	51.4	51.4	51.4	90	48.6	0	0	---	0.00	30.313 
23:55	51.4	51.4	51.4	91	48.9	0	0	---	0.00	30.313 

CoCoRaHS
IN-AL-39
A2 Web Hosting
Creative Commons License
GoDaddy
search engine by freefind advanced

loaded 2018-11-20 15:27:55 • last modified 2010-11-18 10:43:29
Privacy PolicyDisclaimer
• wx.awcolley.com is powered by PmWiki v.2002016 •
• all content (unless otherwise noted) © 2018 A W Colley